Time;durP1;ratioP1;P1;durP2;ratioP2;P2;SDS_P1;SDS_P2;PMS_P1;PMS_P2;Temp;Humidity;BMP_temperature;BMP_pressure;BME280_temperature;BME280_humidity;BME280_pressure;Samples;Min_cycle;Max_cycle;Signal;HPM_P1;HPM_P2
2023/12/30 00:01:33;;;;;;;5.77;2.10;;;;;;;;;;5057295;28;20174;-68
2023/12/30 00:04:00;;;;;;;2.83;1.70;;;;;;;;;;5056701;28;20221;-68
2023/12/30 00:06:27;;;;;;;4.90;1.97;;;;;;;;;;5055480;28;20194;-68
2023/12/30 00:08:54;;;;;;;4.87;2.07;;;;;;;;;;5055467;28;20295;-68
2023/12/30 00:11:20;;;;;;;5.00;2.00;;;;;;;;;;5056681;28;20186;-68
2023/12/30 00:13:47;;;;;;;2.77;1.47;;;;;;;;;;5056658;28;20652;-68
2023/12/30 00:16:14;;;;;;;3.17;1.87;;;;;;;;;;5055564;28;20191;-68
2023/12/30 00:18:41;;;;;;;6.10;1.77;;;;;;;;;;5056534;28;20614;-68
2023/12/30 00:21:08;;;;;;;5.03;1.80;;;;;;;;;;5056490;28;20241;-68
2023/12/30 00:23:35;;;;;;;6.43;1.70;;;;;;;;;;5056630;28;20211;-69
2023/12/30 00:26:20;;;;;;;3.20;1.53;;;;;;;;;;5057265;28;20177;-68
2023/12/30 00:29:10;;;;;;;2.57;1.37;;;;;;;;;;5056314;28;20518;-68
2023/12/30 00:31:36;;;;;;;3.33;1.63;;;;;;;;;;5054992;28;20199;-68
2023/12/30 00:34:03;;;;;;;5.30;1.73;;;;;;;;;;5054727;28;20186;-68
2023/12/30 00:36:30;;;;;;;5.73;1.97;;;;;;;;;;5054888;28;20626;-68
2023/12/30 00:38:57;;;;;;;5.30;1.80;;;;;;;;;;5056439;28;20186;-68
2023/12/30 00:41:40;;;;;;;5.53;1.80;;;;;;;;;;5054818;28;20199;-68
2023/12/30 00:44:07;;;;;;;6.17;2.30;;;;;;;;;;5056878;28;20179;-68
2023/12/30 00:46:53;;;;;;;8.17;1.90;;;;;;;;;;5056335;28;20242;-68
2023/12/30 00:49:20;;;;;;;6.23;1.80;;;;;;;;;;5038294;28;20182;-68
2023/12/30 00:51:46;;;;;;;4.67;1.90;;;;;;;;;;5055611;28;20249;-68
2023/12/30 00:54:13;;;;;;;3.90;1.97;;;;;;;;;;5055926;28;20187;-68
2023/12/30 00:56:40;;;;;;;4.30;1.87;;;;;;;;;;5055862;28;20186;-68
2023/12/30 00:59:07;;;;;;;3.60;1.60;;;;;;;;;;5054562;28;20244;-68
2023/12/30 01:01:34;;;;;;;5.30;1.87;;;;;;;;;;5054416;28;20225;-68
2023/12/30 01:04:00;;;;;;;5.00;2.10;;;;;;;;;;5055726;28;20187;-68
2023/12/30 01:06:27;;;;;;;4.20;1.60;;;;;;;;;;5055220;28;20187;-68
2023/12/30 01:08:54;;;;;;;4.20;1.80;;;;;;;;;;5054623;28;20186;-68
2023/12/30 01:11:20;;;;;;;9.20;1.53;;;;;;;;;;5054320;28;20194;-68
2023/12/30 01:49:11;;;;;;;4.87;1.57;;;;;;;;;;5053558;28;20170;-68
2023/12/30 01:51:38;;;;;;;7.23;1.80;;;;;;;;;;5053877;28;20198;-68
2023/12/30 01:54:05;;;;;;;3.50;1.60;;;;;;;;;;5036958;28;20278;-68
2023/12/30 01:56:31;;;;;;;4.80;2.00;;;;;;;;;;5053495;28;20614;-68
2023/12/30 01:59:16;;;;;;;3.93;1.23;;;;;;;;;;5053089;28;20181;-68
2023/12/30 02:01:43;;;;;;;4.33;1.70;;;;;;;;;;5037574;28;20217;-68
2023/12/30 02:04:13;;;;;;;2.40;1.50;;;;;;;;;;5053334;28;20226;-68
2023/12/30 02:06:40;;;;;;;5.07;2.00;;;;;;;;;;5054224;28;20273;-68
2023/12/30 02:09:08;;;;;;;4.27;1.90;;;;;;;;;;5053472;28;20625;-68
2023/12/30 02:11:36;;;;;;;3.00;1.80;;;;;;;;;;5037064;28;20638;-68
2023/12/30 02:14:02;;;;;;;2.70;1.80;;;;;;;;;;5036841;28;20222;-68
2023/12/30 02:16:29;;;;;;;7.70;1.93;;;;;;;;;;5053022;28;20195;-68
2023/12/30 02:18:56;;;;;;;3.63;1.60;;;;;;;;;;5053222;28;20190;-68
2023/12/30 02:21:23;;;;;;;5.60;2.07;;;;;;;;;;5054876;28;20281;-68
2023/12/30 02:23:53;;;;;;;6.03;1.80;;;;;;;;;;5053129;28;20214;-68
2023/12/30 02:26:20;;;;;;;3.50;1.77;;;;;;;;;;5053434;28;20187;-67
2023/12/30 02:28:47;;;;;;;4.87;2.00;;;;;;;;;;5053106;28;20204;-68
2023/12/30 02:31:14;;;;;;;4.90;1.70;;;;;;;;;;5054686;28;20515;-68
2023/12/30 02:33:41;;;;;;;6.03;1.73;;;;;;;;;;5052738;28;20195;-68
2023/12/30 02:36:07;;;;;;;4.93;1.70;;;;;;;;;;5053164;28;20190;-68
2023/12/30 02:38:34;;;;;;;7.27;1.47;;;;;;;;;;5051878;28;20199;-68
2023/12/30 02:45:00;;;;;;;7.07;1.90;;;;;;;;;;5053855;28;20158;-68
2023/12/30 02:47:44;;;;;;;4.80;1.90;;;;;;;;;;5038888;28;20262;-68
2023/12/30 02:50:11;;;;;;;7.40;1.83;;;;;;;;;;5053449;28;20555;-68
2023/12/30 02:52:38;;;;;;;7.67;2.33;;;;;;;;;;5052611;28;20276;-68
2023/12/30 02:55:06;;;;;;;4.10;1.70;;;;;;;;;;5054381;28;20190;-68
2023/12/30 02:57:32;;;;;;;4.87;1.57;;;;;;;;;;5052896;28;20228;-68
2023/12/30 03:00:13;;;;;;;3.83;1.47;;;;;;;;;;5053787;28;20175;-68
2023/12/30 03:02:39;;;;;;;3.80;1.80;;;;;;;;;;5052409;28;20214;-68
2023/12/30 03:05:08;;;;;;;3.87;1.87;;;;;;;;;;5052593;28;20191;-68
2023/12/30 03:07:36;;;;;;;6.23;1.83;;;;;;;;;;5052462;28;20194;-68
2023/12/30 03:10:04;;;;;;;8.40;2.03;;;;;;;;;;5053218;28;20191;-68
2023/12/30 03:12:48;;;;;;;7.03;2.00;;;;;;;;;;5054028;28;20494;-68
2023/12/30 03:15:15;;;;;;;7.27;2.20;;;;;;;;;;5052400;28;20292;-68
2023/12/30 03:17:59;;;;;;;4.23;1.93;;;;;;;;;;5052904;28;20163;-68
2023/12/30 03:20:26;;;;;;;5.70;2.13;;;;;;;;;;5053329;28;20182;-68
2023/12/30 03:22:52;;;;;;;5.93;2.30;;;;;;;;;;5053542;28;20609;-68
2023/12/30 03:25:19;;;;;;;4.23;1.90;;;;;;;;;;5053462;28;20674;-68
2023/12/30 03:27:45;;;;;;;7.53;2.33;;;;;;;;;;5052211;28;20645;-68
2023/12/30 03:30:30;;;;;;;3.20;2.07;;;;;;;;;;5052784;28;20494;-68
2023/12/30 03:32:56;;;;;;;6.60;2.50;;;;;;;;;;5053478;28;20564;-68
2023/12/30 03:35:23;;;;;;;5.80;2.50;;;;;;;;;;5053728;28;20183;-68
2023/12/30 03:37:50;;;;;;;9.77;1.93;;;;;;;;;;5053387;28;20190;-68
2023/12/30 03:40:16;;;;;;;6.30;1.80;;;;;;;;;;5053408;28;20186;-68
2023/12/30 03:42:43;;;;;;;8.97;2.37;;;;;;;;;;5052720;28;20217;-68
2023/12/30 03:45:10;;;;;;;4.60;1.67;;;;;;;;;;5053344;28;20221;-68
2023/12/30 03:47:37;;;;;;;7.63;1.80;;;;;;;;;;5052048;28;20622;-68
2023/12/30 03:50:21;;;;;;;4.67;1.80;;;;;;;;;;5055374;28;20158;-68
2023/12/30 03:52:48;;;;;;;3.87;2.00;;;;;;;;;;5056365;28;20735;-68
2023/12/30 03:55:15;;;;;;;5.50;2.17;;;;;;;;;;5022923;28;20191;-68
2023/12/30 03:57:42;;;;;;;8.77;2.10;;;;;;;;;;5055883;28;20199;-68
2023/12/30 04:00:08;;;;;;;7.67;1.87;;;;;;;;;;5057499;28;20193;-68
2023/12/30 04:02:39;;;;;;;6.83;2.07;;;;;;;;;;5040059;28;20214;-68
2023/12/30 04:05:06;;;;;;;4.87;1.50;;;;;;;;;;5056847;28;20210;-68
2023/12/30 04:07:32;;;;;;;4.63;1.63;;;;;;;;;;5055541;28;20626;-68
2023/12/30 04:09:59;;;;;;;7.00;1.83;;;;;;;;;;5055692;28;20190;-68
2023/12/30 04:12:26;;;;;;;4.77;1.40;;;;;;;;;;5055410;28;20186;-68
2023/12/30 04:14:52;;;;;;;6.80;1.57;;;;;;;;;;5056652;28;20210;-68
2023/12/30 04:17:19;;;;;;;3.17;1.33;;;;;;;;;;5055584;28;20195;-68
2023/12/30 04:19:46;;;;;;;6.47;1.57;;;;;;;;;;5057106;28;20187;-68
2023/12/30 04:22:13;;;;;;;3.07;1.10;;;;;;;;;;5055518;28;20218;-68
2023/12/30 04:24:40;;;;;;;5.03;1.47;;;;;;;;;;5038647;28;20221;-68
2023/12/30 04:27:07;;;;;;;3.70;1.07;;;;;;;;;;5055421;28;20218;-68
2023/12/30 04:29:34;;;;;;;3.47;1.40;;;;;;;;;;5055082;28;20183;-68
2023/12/30 04:32:01;;;;;;;5.07;1.50;;;;;;;;;;5054997;28;20198;-68
2023/12/30 04:34:27;;;;;;;5.53;1.53;;;;;;;;;;5055127;28;20216;-68
2023/12/30 04:36:54;;;;;;;4.20;1.60;;;;;;;;;;5054991;28;20537;-67
2023/12/30 04:39:21;;;;;;;4.83;1.60;;;;;;;;;;5054918;28;20194;-68
2023/12/30 04:41:47;;;;;;;5.00;1.53;;;;;;;;;;5056070;28;20199;-68
2023/12/30 04:44:14;;;;;;;4.90;1.60;;;;;;;;;;5055687;28;20570;-68
2023/12/30 04:46:58;;;;;;;4.33;1.53;;;;;;;;;;5056160;28;20151;-68
2023/12/30 04:49:25;;;;;;;4.20;1.50;;;;;;;;;;5054742;28;20572;-68
2023/12/30 04:51:52;;;;;;;6.77;1.43;;;;;;;;;;5055689;28;20230;-68
2023/12/30 04:54:19;;;;;;;6.07;1.40;;;;;;;;;;5055650;28;20187;-68
2023/12/30 04:56:46;;;;;;;6.40;1.60;;;;;;;;;;5055647;28;20217;-68
2023/12/30 04:59:13;;;;;;;3.33;1.63;;;;;;;;;;5055059;28;20199;-68
2023/12/30 05:01:40;;;;;;;7.17;1.47;;;;;;;;;;5053538;28;20221;-68
2023/12/30 05:04:07;;;;;;;6.00;1.70;;;;;;;;;;5055693;28;20277;-68
2023/12/30 05:06:33;;;;;;;8.93;1.80;;;;;;;;;;5055180;28;20178;-68
2023/12/30 05:09:00;;;;;;;3.50;1.53;;;;;;;;;;5055597;28;20553;-68
2023/12/30 05:11:27;;;;;;;4.37;2.27;;;;;;;;;;5054621;28;20186;-67
2023/12/30 05:14:12;;;;;;;2.90;1.60;;;;;;;;;;5055803;28;20151;-68
2023/12/30 05:16:42;;;;;;;6.43;1.57;;;;;;;;;;5054494;28;20195;-68
2023/12/30 05:19:09;;;;;;;4.47;1.60;;;;;;;;;;5038164;28;20170;-68
2023/12/30 05:21:36;;;;;;;6.43;1.77;;;;;;;;;;5055982;28;20182;-68
2023/12/30 05:24:05;;;;;;;2.07;1.20;;;;;;;;;;5062853;28;20210;-68
2023/12/30 05:26:31;;;;;;;6.43;1.90;;;;;;;;;;5074026;28;20186;-68
2023/12/30 05:28:58;;;;;;;4.70;1.87;;;;;;;;;;5074987;28;20205;-68
2023/12/30 05:31:25;;;;;;;5.20;2.10;;;;;;;;;;5074199;28;20190;-68
2023/12/30 05:33:52;;;;;;;5.67;2.20;;;;;;;;;;5073948;28;20186;-68
2023/12/30 05:36:18;;;;;;;4.33;1.73;;;;;;;;;;5075363;28;20212;-68
2023/12/30 05:38:46;;;;;;;6.27;2.13;;;;;;;;;;5075025;28;20182;-68
2023/12/30 05:41:12;;;;;;;4.70;1.83;;;;;;;;;;5074133;28;20201;-68
2023/12/30 05:43:40;;;;;;;6.77;2.40;;;;;;;;;;5074904;28;20255;-68
2023/12/30 05:46:06;;;;;;;7.37;1.70;;;;;;;;;;5073693;28;20179;-68
2023/12/30 05:48:33;;;;;;;5.50;2.10;;;;;;;;;;5075132;28;20217;-68
2023/12/30 05:51:00;;;;;;;6.67;2.40;;;;;;;;;;5074361;28;20505;-68
2023/12/30 05:53:28;;;;;;;8.17;2.50;;;;;;;;;;5073712;28;20310;-68
2023/12/30 05:56:19;;;;;;;6.27;2.40;;;;;;;;;;5074719;28;20150;-68
2023/12/30 05:58:46;;;;;;;11.30;3.00;;;;;;;;;;5056864;28;20202;-68
2023/12/30 06:01:30;;;;;;;7.03;2.20;;;;;;;;;;5074658;28;20157;-68
2023/12/30 06:03:58;;;;;;;6.83;2.47;;;;;;;;;;5074762;28;20301;-68
2023/12/30 06:06:42;;;;;;;6.23;2.03;;;;;;;;;;5075315;28;20643;-68
2023/12/30 06:09:09;;;;;;;5.80;2.50;;;;;;;;;;5074966;28;20259;-68
2023/12/30 06:11:36;;;;;;;5.73;2.00;;;;;;;;;;5073128;28;20197;-68
2023/12/30 06:14:03;;;;;;;6.23;2.40;;;;;;;;;;5056726;28;20580;-68
2023/12/30 06:16:29;;;;;;;6.40;2.03;;;;;;;;;;5073603;28;20205;-68
2023/12/30 06:19:32;;;;;;;7.50;2.70;;;;;;;;;;5074839;28;20268;-68
2023/12/30 06:21:59;;;;;;;5.80;2.33;;;;;;;;;;5074652;28;20186;-68
2023/12/30 06:25:03;;;;;;;4.63;2.00;;;;;;;;;;5073444;28;20226;-68
2023/12/30 06:27:31;;;;;;;8.67;2.10;;;;;;;;;;5057338;28;20293;-69
2023/12/30 06:30:33;;;;;;;7.43;2.07;;;;;;;;;;5073349;28;20169;-68
2023/12/30 06:33:06;;;;;;;4.27;1.83;;;;;;;;;;5073805;28;20621;-68
2023/12/30 06:36:09;;;;;;;5.03;2.20;;;;;;;;;;5073830;28;20632;-68
2023/12/30 06:38:35;;;;;;;6.20;2.23;;;;;;;;;;5074326;28;20186;-68
2023/12/30 06:41:19;;;;;;;6.83;1.90;;;;;;;;;;5074330;28;20597;-68
2023/12/30 06:43:46;;;;;;;10.33;2.30;;;;;;;;;;5072748;28;20202;-72
2023/12/30 06:46:33;;;;;;;4.90;1.80;;;;;;;;;;5073274;28;20165;-71
2023/12/30 06:49:00;;;;;;;7.50;2.10;;;;;;;;;;5057152;28;20225;-71
2023/12/30 06:51:27;;;;;;;7.07;2.07;;;;;;;;;;5040232;28;20194;-73
2023/12/30 06:53:54;;;;;;;3.70;1.77;;;;;;;;;;5074620;28;20264;-71
2023/12/30 06:56:21;;;;;;;6.07;2.00;;;;;;;;;;5072301;28;20209;-72
2023/12/30 06:58:48;;;;;;;7.73;2.53;;;;;;;;;;5056355;28;20189;-72
2023/12/30 07:01:14;;;;;;;4.33;1.90;;;;;;;;;;5073027;28;20181;-73
2023/12/30 07:03:41;;;;;;;3.20;2.00;;;;;;;;;;5072568;28;20206;-71
2023/12/30 07:06:08;;;;;;;7.17;2.33;;;;;;;;;;5055893;28;20273;-73
2023/12/30 07:08:35;;;;;;;9.47;2.77;;;;;;;;;;5055554;28;20244;-72
2023/12/30 07:11:02;;;;;;;8.87;2.63;;;;;;;;;;5073716;28;20188;-71
2023/12/30 07:13:28;;;;;;;9.57;2.67;;;;;;;;;;5073693;28;20182;-71
2023/12/30 07:15:55;;;;;;;6.33;3.30;;;;;;;;;;5073411;28;20187;-72
2023/12/30 07:18:22;;;;;;;9.47;2.90;;;;;;;;;;5072400;28;20215;-71
2023/12/30 07:21:06;;;;;;;6.77;2.67;;;;;;;;;;5073501;28;20158;-71
2023/12/30 07:23:33;;;;;;;7.03;2.67;;;;;;;;;;5072526;28;20225;-72
2023/12/30 07:26:00;;;;;;;6.97;3.03;;;;;;;;;;5075422;28;20185;-73
2023/12/30 07:28:26;;;;;;;8.77;2.80;;;;;;;;;;5059722;28;20190;-74
2023/12/30 07:30:53;;;;;;;9.50;3.20;;;;;;;;;;5059438;28;20190;-73
2023/12/30 07:33:21;;;;;;;7.53;2.60;;;;;;;;;;5076649;28;20598;-73
2023/12/30 07:35:48;;;;;;;10.40;2.73;;;;;;;;;;5060310;28;20193;-73
2023/12/30 07:38:18;;;;;;;4.57;2.00;;;;;;;;;;5076141;28;20622;-72
2023/12/30 07:40:45;;;;;;;6.63;2.33;;;;;;;;;;5059747;28;20540;-73
2023/12/30 07:43:12;;;;;;;11.33;2.80;;;;;;;;;;5077017;28;20198;-71
2023/12/30 07:45:39;;;;;;;9.03;2.50;;;;;;;;;;5059294;28;20194;-73
2023/12/30 07:48:05;;;;;;;5.87;2.33;;;;;;;;;;5042519;28;20285;-72
2023/12/30 07:50:32;;;;;;;4.07;2.53;;;;;;;;;;5076647;28;20629;-72
2023/12/30 07:52:59;;;;;;;3.13;1.67;;;;;;;;;;5077330;28;20222;-72
2023/12/30 07:55:26;;;;;;;6.33;2.60;;;;;;;;;;5059403;28;20200;-73
2023/12/30 07:57:53;;;;;;;8.20;2.73;;;;;;;;;;5076953;28;20244;-72
2023/12/30 08:00:21;;;;;;;9.77;2.93;;;;;;;;;;5075634;28;20178;-73
2023/12/30 08:06:41;;;;;;;9.97;2.87;;;;;;;;;;5076801;28;20145;-72
2023/12/30 08:09:09;;;;;;;8.50;2.37;;;;;;;;;;5076858;28;20192;-72
2023/12/30 08:11:37;;;;;;;9.63;2.97;;;;;;;;;;5075326;28;20537;-73
2023/12/30 08:14:23;;;;;;;5.43;1.60;;;;;;;;;;5076554;28;20171;-71
2023/12/30 08:16:50;;;;;;;4.53;1.70;;;;;;;;;;5059199;28;20373;-73
2023/12/30 08:19:17;;;;;;;6.60;2.13;;;;;;;;;;5058994;28;20625;-72
2023/12/30 08:21:44;;;;;;;6.93;2.47;;;;;;;;;;5059165;28;20636;-70
2023/12/30 08:24:14;;;;;;;8.00;2.87;;;;;;;;;;5075078;28;20229;-69
2023/12/30 08:26:41;;;;;;;5.83;2.70;;;;;;;;;;5075123;28;20190;-73
2023/12/30 08:29:09;;;;;;;6.90;2.60;;;;;;;;;;5076279;28;20177;-74
2023/12/30 08:31:36;;;;;;;7.00;2.87;;;;;;;;;;5076117;28;20228;-72
2023/12/30 08:34:03;;;;;;;9.40;3.10;;;;;;;;;;5075516;28;20228;-73
2023/12/30 08:36:30;;;;;;;7.87;3.27;;;;;;;;;;5057012;28;20182;-71
2023/12/30 08:39:00;;;;;;;10.03;3.03;;;;;;;;;;5075639;28;20182;-72
2023/12/30 08:41:27;;;;;;;6.37;3.23;;;;;;;;;;5058183;28;20190;-71
2023/12/30 08:43:57;;;;;;;9.63;3.13;;;;;;;;;;5075083;28;20245;-71
2023/12/30 08:46:24;;;;;;;11.50;3.60;;;;;;;;;;5042153;28;20193;-72
2023/12/30 08:48:51;;;;;;;5.00;2.23;;;;;;;;;;5074780;28;20204;-72
2023/12/30 08:51:18;;;;;;;10.73;3.27;;;;;;;;;;5074635;28;20186;-73
2023/12/30 08:53:45;;;;;;;8.13;3.57;;;;;;;;;;5074559;28;20222;-72
2023/12/30 08:56:12;;;;;;;9.80;2.70;;;;;;;;;;5075101;28;20225;-72
2023/12/30 08:58:39;;;;;;;8.90;3.20;;;;;;;;;;5058099;28;20190;-72
2023/12/30 09:01:06;;;;;;;9.03;3.03;;;;;;;;;;5075871;28;20186;-72
2023/12/30 09:03:34;;;;;;;8.60;3.00;;;;;;;;;;5058228;28;20206;-72
2023/12/30 09:06:01;;;;;;;7.30;3.07;;;;;;;;;;5058586;28;20190;-72
2023/12/30 09:08:28;;;;;;;8.53;2.70;;;;;;;;;;5074337;28;20621;-72
2023/12/30 09:10:56;;;;;;;7.07;3.30;;;;;;;;;;5075401;28;20221;-71
2023/12/30 09:13:23;;;;;;;9.17;2.90;;;;;;;;;;5041772;28;20234;-72
2023/12/30 09:15:51;;;;;;;7.50;3.30;;;;;;;;;;5057517;28;20307;-72
2023/12/30 09:18:20;;;;;;;8.60;3.13;;;;;;;;;;5041512;28;20201;-72
2023/12/30 09:20:47;;;;;;;10.77;3.40;;;;;;;;;;5057657;28;20190;-72
2023/12/30 09:23:32;;;;;;;7.97;3.53;;;;;;;;;;5074307;28;20206;-73
2023/12/30 09:25:59;;;;;;;11.40;5.03;;;;;;;;;;5073972;28;20228;-73
2023/12/30 09:28:27;;;;;;;9.57;3.70;;;;;;;;;;5040975;28;20194;-73
2023/12/30 09:30:55;;;;;;;10.60;4.60;;;;;;;;;;5074115;28;20196;-73
2023/12/30 09:33:22;;;;;;;12.57;5.43;;;;;;;;;;5074905;28;20186;-71
2023/12/30 09:35:54;;;;;;;12.83;4.90;;;;;;;;;;5074370;28;20178;-71
2023/12/30 09:38:23;;;;;;;8.17;4.00;;;;;;;;;;5057700;28;20193;-70
2023/12/30 09:40:52;;;;;;;8.13;3.10;;;;;;;;;;5042508;28;20186;-71
2023/12/30 09:43:20;;;;;;;5.90;3.17;;;;;;;;;;5073321;28;20259;-71
2023/12/30 09:45:48;;;;;;;4.43;2.70;;;;;;;;;;5073778;28;20194;-71
2023/12/30 09:48:15;;;;;;;3.20;1.67;;;;;;;;;;5074330;28;20190;-72
2023/12/30 09:50:44;;;;;;;4.23;2.43;;;;;;;;;;5040430;28;20194;-72
2023/12/30 09:53:11;;;;;;;5.00;2.13;;;;;;;;;;5040510;28;20312;-72
2023/12/30 09:55:38;;;;;;;4.77;2.10;;;;;;;;;;5074584;28;20421;-71
2023/12/30 09:58:06;;;;;;;3.50;1.83;;;;;;;;;;5073227;28;20189;-71
2023/12/30 10:00:33;;;;;;;4.47;1.87;;;;;;;;;;5073337;28;20224;-71
2023/12/30 10:03:21;;;;;;;3.13;1.77;;;;;;;;;;5059179;28;20194;-71
2023/12/30 10:05:50;;;;;;;4.97;2.30;;;;;;;;;;5056975;28;20189;-71
2023/12/30 10:08:19;;;;;;;3.63;2.10;;;;;;;;;;5073791;28;20796;-72
2023/12/30 10:10:47;;;;;;;5.43;2.40;;;;;;;;;;5073586;28;20656;-72
2023/12/30 10:13:15;;;;;;;4.27;2.00;;;;;;;;;;5073274;28;20281;-72
2023/12/30 10:15:42;;;;;;;2.63;1.70;;;;;;;;;;5040132;28;20728;-72
2023/12/30 10:18:09;;;;;;;4.30;2.37;;;;;;;;;;5056277;28;20264;-72
2023/12/30 10:20:38;;;;;;;1.03;0.80;;;;;;;;;;5072916;28;20644;-71
2023/12/30 10:23:06;;;;;;;2.70;1.30;;;;;;;;;;5073435;28;20201;-72
2023/12/30 10:25:34;;;;;;;3.07;1.50;;;;;;;;;;5072557;28;20954;-71
2023/12/30 10:28:06;;;;;;;3.87;1.33;;;;;;;;;;5072673;28;20436;-72
2023/12/30 10:30:36;;;;;;;1.50;0.90;;;;;;;;;;5057325;28;20190;-72
2023/12/30 10:33:12;;;;;;;1.63;0.97;;;;;;;;;;5040171;28;20514;-72
2023/12/30 10:35:41;;;;;;;1.83;0.93;;;;;;;;;;5040318;28;20197;-71
2023/12/30 10:38:08;;;;;;;1.67;0.80;;;;;;;;;;5072622;28;20182;-72
2023/12/30 10:40:35;;;;;;;3.37;1.33;;;;;;;;;;5056313;28;20182;-70
2023/12/30 10:43:02;;;;;;;2.80;1.10;;;;;;;;;;5056219;28;20285;-70
2023/12/30 10:45:31;;;;;;;2.40;1.50;;;;;;;;;;5056801;28;20189;-72
2023/12/30 10:47:59;;;;;;;5.00;1.80;;;;;;;;;;5056557;28;20240;-71
2023/12/30 10:50:27;;;;;;;5.07;1.80;;;;;;;;;;5056887;28;20192;-71
2023/12/30 10:53:05;;;;;;;3.97;1.50;;;;;;;;;;5074183;28;20656;-73
2023/12/30 10:55:32;;;;;;;2.97;1.13;;;;;;;;;;5073026;28;20174;-71
2023/12/30 10:58:03;;;;;;;2.80;1.30;;;;;;;;;;5052372;28;20179;-71
2023/12/30 11:00:33;;;;;;;4.63;1.60;;;;;;;;;;5035752;28;20602;-71
2023/12/30 11:03:01;;;;;;;2.53;1.60;;;;;;;;;;5036419;28;20232;-72
2023/12/30 11:05:34;;;;;;;4.33;1.97;;;;;;;;;;5053450;28;20179;-71
2023/12/30 11:08:02;;;;;;;4.43;2.47;;;;;;;;;;5052898;28;20421;-71
2023/12/30 11:10:29;;;;;;;4.43;2.10;;;;;;;;;;5052499;28;20421;-73
2023/12/30 11:12:56;;;;;;;3.20;1.80;;;;;;;;;;5053943;28;20436;-68
2023/12/30 11:15:28;;;;;;;3.93;2.17;;;;;;;;;;5052226;28;20626;-70
2023/12/30 11:17:57;;;;;;;4.13;2.43;;;;;;;;;;5035646;28;20250;-75
2023/12/30 11:20:27;;;;;;;5.80;2.80;;;;;;;;;;5036164;28;20409;-69
2023/12/30 11:22:55;;;;;;;5.23;2.87;;;;;;;;;;5044978;28;20468;-69
2023/12/30 11:25:22;;;;;;;6.27;2.13;;;;;;;;;;5035617;28;20461;-70
2023/12/30 11:27:51;;;;;;;6.00;1.80;;;;;;;;;;5036503;28;20183;-70
2023/12/30 11:30:20;;;;;;;3.97;1.97;;;;;;;;;;5063285;28;20213;-73
2023/12/30 11:32:47;;;;;;;4.47;2.13;;;;;;;;;;5046141;28;20217;-71
2023/12/30 11:35:14;;;;;;;3.70;2.20;;;;;;;;;;5064032;28;20202;-69
2023/12/30 11:37:44;;;;;;;3.30;2.17;;;;;;;;;;5030077;28;20216;-69
2023/12/30 11:40:12;;;;;;;4.13;1.40;;;;;;;;;;5062653;28;20226;-69
2023/12/30 11:42:39;;;;;;;5.47;2.30;;;;;;;;;;5062755;28;20186;-69
2023/12/30 11:45:14;;;;;;;8.43;3.73;;;;;;;;;;5062610;28;20993;-70
2023/12/30 11:47:44;;;;;;;11.10;4.40;;;;;;;;;;5063091;28;20537;-71
2023/12/30 11:50:11;;;;;;;8.10;3.67;;;;;;;;;;5046370;28;20198;-73
2023/12/30 11:52:44;;;;;;;7.47;3.30;;;;;;;;;;5046262;28;20249;-75
2023/12/30 11:55:11;;;;;;;3.70;2.50;;;;;;;;;;5029695;28;20194;-76
2023/12/30 11:57:38;;;;;;;3.77;1.87;;;;;;;;;;5046087;28;20202;-73
2023/12/30 12:00:07;;;;;;;4.10;1.93;;;;;;;;;;5062885;28;20412;-74
2023/12/30 12:02:38;;;;;;;6.00;2.40;;;;;;;;;;5064492;28;20450;-75
2023/12/30 12:05:06;;;;;;;4.97;2.07;;;;;;;;;;5046559;28;20468;-74
2023/12/30 12:07:34;;;;;;;4.07;2.17;;;;;;;;;;5025959;28;20633;-75
2023/12/30 12:10:01;;;;;;;4.60;2.30;;;;;;;;;;5026529;28;20237;-72
2023/12/30 12:12:38;;;;;;;4.47;1.80;;;;;;;;;;5047502;28;20187;-72
2023/12/30 12:15:07;;;;;;;3.50;2.10;;;;;;;;;;5014034;28;20508;-70
2023/12/30 12:17:35;;;;;;;6.20;2.20;;;;;;;;;;5029901;28;20240;-70
2023/12/30 12:20:04;;;;;;;4.03;2.30;;;;;;;;;;5046107;28;20194;-69
2023/12/30 12:22:31;;;;;;;5.27;2.70;;;;;;;;;;5017834;28;20510;-70
2023/12/30 12:25:01;;;;;;;6.63;2.50;;;;;;;;;;5045806;28;20984;-70
2023/12/30 12:27:28;;;;;;;3.87;1.80;;;;;;;;;;5045950;28;20195;-70
2023/12/30 12:29:55;;;;;;;5.90;2.50;;;;;;;;;;5037283;28;20560;-70
2023/12/30 12:32:23;;;;;;;4.67;2.63;;;;;;;;;;5046070;28;20437;-70
2023/12/30 12:34:53;;;;;;;5.60;2.37;;;;;;;;;;5029122;28;20438;-71
2023/12/30 12:37:21;;;;;;;4.30;2.43;;;;;;;;;;5030070;28;20425;-76
2023/12/30 12:39:48;;;;;;;4.47;2.60;;;;;;;;;;5030130;28;20194;-73
2023/12/30 12:42:15;;;;;;;3.67;1.80;;;;;;;;;;5048603;28;20713;-73
2023/12/30 12:45:00;;;;;;;4.43;1.70;;;;;;;;;;5036715;28;20214;-75
2023/12/30 12:47:28;;;;;;;4.97;1.93;;;;;;;;;;5031040;28;20425;-74
2023/12/30 12:49:55;;;;;;;4.43;2.17;;;;;;;;;;5048050;28;20440;-75
2023/12/30 12:52:22;;;;;;;6.87;2.77;;;;;;;;;;5014960;28;20453;-75
2023/12/30 12:54:50;;;;;;;5.13;2.63;;;;;;;;;;5012916;28;20429;-74
2023/12/30 12:57:18;;;;;;;5.93;2.37;;;;;;;;;;5045227;28;20429;-75
2023/12/30 12:59:45;;;;;;;4.43;2.10;;;;;;;;;;5012569;28;20195;-74
2023/12/30 13:02:11;;;;;;;5.67;1.80;;;;;;;;;;5045064;28;20194;-75
2023/12/30 13:04:39;;;;;;;4.13;2.13;;;;;;;;;;5046268;28;20280;-75
2023/12/30 13:07:06;;;;;;;4.80;2.27;;;;;;;;;;5028366;28;20190;-74
2023/12/30 13:09:46;;;;;;;5.03;2.00;;;;;;;;;;5028397;28;20206;-75
2023/12/30 13:12:14;;;;;;;7.40;2.20;;;;;;;;;;5049303;28;20429;-71
2023/12/30 13:14:41;;;;;;;5.20;2.40;;;;;;;;;;5055577;28;20191;-69
2023/12/30 13:17:13;;;;;;;6.03;2.17;;;;;;;;;;5054150;28;20217;-69
2023/12/30 13:19:40;;;;;;;8.47;2.80;;;;;;;;;;5038013;28;20190;-69
2023/12/30 13:22:07;;;;;;;4.23;2.53;;;;;;;;;;5039707;28;20187;-70
2023/12/30 13:24:34;;;;;;;7.13;2.50;;;;;;;;;;5021026;28;20550;-69
2023/12/30 13:27:01;;;;;;;7.20;2.70;;;;;;;;;;5037967;28;20637;-69
2023/12/30 13:29:29;;;;;;;6.53;2.33;;;;;;;;;;5037980;28;20187;-69
2023/12/30 13:31:56;;;;;;;3.77;1.93;;;;;;;;;;5038501;28;20566;-69
2023/12/30 13:34:40;;;;;;;4.83;1.93;;;;;;;;;;5039889;28;20163;-69
2023/12/30 13:37:08;;;;;;;5.10;1.73;;;;;;;;;;5037818;28;20420;-69
2023/12/30 13:39:52;;;;;;;3.40;1.50;;;;;;;;;;5040330;28;20270;-69
2023/12/30 13:42:22;;;;;;;7.50;2.10;;;;;;;;;;5037619;28;20302;-69
2023/12/30 13:44:50;;;;;;;3.90;1.70;;;;;;;;;;5055490;28;20347;-69
2023/12/30 13:47:38;;;;;;;4.50;1.37;;;;;;;;;;5065861;28;20190;-69
2023/12/30 13:50:17;;;;;;;5.10;1.60;;;;;;;;;;5074011;28;20163;-69
2023/12/30 13:52:44;;;;;;;5.53;1.90;;;;;;;;;;5075560;28;20224;-69
2023/12/30 13:55:15;;;;;;;4.80;2.03;;;;;;;;;;5073660;28;20194;-69
2023/12/30 13:57:42;;;;;;;5.13;2.43;;;;;;;;;;5057327;28;20898;-69
2023/12/30 14:00:10;;;;;;;6.03;2.20;;;;;;;;;;5073224;28;20515;-69
2023/12/30 14:02:42;;;;;;;4.20;2.23;;;;;;;;;;5055565;28;20185;-69
2023/12/30 14:05:18;;;;;;;6.73;2.50;;;;;;;;;;5075163;28;20436;-69
2023/12/30 14:07:45;;;;;;;7.23;3.60;;;;;;;;;;5056990;28;20443;-69
2023/12/30 14:10:17;;;;;;;5.20;2.90;;;;;;;;;;5074185;28;20420;-69
2023/12/30 14:12:46;;;;;;;7.20;3.00;;;;;;;;;;5075089;28;20405;-69
2023/12/30 14:15:13;;;;;;;7.97;2.83;;;;;;;;;;5074211;28;20277;-68
2023/12/30 14:17:42;;;;;;;6.67;3.23;;;;;;;;;;5073078;28;20532;-69
2023/12/30 14:20:10;;;;;;;8.57;3.10;;;;;;;;;;5068891;28;20522;-69
2023/12/30 14:22:38;;;;;;;7.60;4.03;;;;;;;;;;5053461;28;20203;-69
2023/12/30 14:25:06;;;;;;;11.03;3.97;;;;;;;;;;5052853;28;20225;-69
2023/12/30 14:27:33;;;;;;;7.10;2.93;;;;;;;;;;5052841;28;20457;-69
2023/12/30 14:30:05;;;;;;;5.97;2.50;;;;;;;;;;5053283;28;20187;-69
2023/12/30 14:32:33;;;;;;;6.73;2.70;;;;;;;;;;5037433;28;20214;-69
2023/12/30 14:35:01;;;;;;;5.27;2.63;;;;;;;;;;5036377;28;20447;-69
2023/12/30 14:37:28;;;;;;;7.60;3.20;;;;;;;;;;5057122;28;20240;-69
2023/12/30 14:39:55;;;;;;;9.80;3.67;;;;;;;;;;5052969;28;20191;-69
2023/12/30 14:42:24;;;;;;;8.70;3.93;;;;;;;;;;5036363;28;20187;-69
2023/12/30 14:44:51;;;;;;;9.43;3.50;;;;;;;;;;5052587;28;20461;-69
2023/12/30 14:47:19;;;;;;;6.60;3.43;;;;;;;;;;5052602;28;20202;-69
2023/12/30 14:49:47;;;;;;;8.53;3.07;;;;;;;;;;5020693;28;20819;-68
2023/12/30 14:52:13;;;;;;;6.60;2.57;;;;;;;;;;5052655;28;20261;-68
2023/12/30 14:54:41;;;;;;;5.03;2.03;;;;;;;;;;5053191;28;20183;-69
2023/12/30 14:57:27;;;;;;;5.57;1.83;;;;;;;;;;5052582;28;20169;-68
2023/12/30 14:59:54;;;;;;;3.83;1.90;;;;;;;;;;5054285;28;20197;-68
2023/12/30 15:02:21;;;;;;;6.67;2.90;;;;;;;;;;5053265;28;20195;-69
2023/12/30 15:04:48;;;;;;;6.03;2.90;;;;;;;;;;5053817;28;20198;-69
2023/12/30 15:07:15;;;;;;;10.60;4.03;;;;;;;;;;5052447;28;20190;-69
2023/12/30 15:09:59;;;;;;;7.37;2.40;;;;;;;;;;5024670;28;20166;-68
2023/12/30 15:12:26;;;;;;;5.43;3.07;;;;;;;;;;5052725;28;20273;-70
2023/12/30 15:14:53;;;;;;;5.70;3.03;;;;;;;;;;5053644;28;20558;-70
2023/12/30 15:17:20;;;;;;;5.00;2.63;;;;;;;;;;5053880;28;20186;-70
2023/12/30 15:19:47;;;;;;;7.57;2.77;;;;;;;;;;5035929;28;20441;-69
2023/12/30 15:22:34;;;;;;;6.67;3.13;;;;;;;;;;5053074;28;20170;-70
2023/12/30 15:25:01;;;;;;;8.73;3.23;;;;;;;;;;5035670;28;20672;-70
2023/12/30 15:27:28;;;;;;;5.80;2.93;;;;;;;;;;5036342;28;20194;-70
2023/12/30 15:29:55;;;;;;;6.37;2.77;;;;;;;;;;5053465;28;20409;-70
2023/12/30 15:32:22;;;;;;;3.63;2.00;;;;;;;;;;5052281;28;20534;-69
2023/12/30 15:35:07;;;;;;;4.33;2.33;;;;;;;;;;5052752;28;20169;-69
2023/12/30 15:37:34;;;;;;;4.63;2.10;;;;;;;;;;5053143;28;20463;-69
2023/12/30 15:40:18;;;;;;;2.60;1.70;;;;;;;;;;5053419;28;20385;-70